sensor_id;sensor_type;location;lat;lon;timestamp;temperature;humidity
4183;DHT22;2105;52.300;9.182;2022-09-03T00:01:00;17.00;1.00
4183;DHT22;2105;52.300;9.182;2022-09-03T00:03:32;17.00;1.00
4183;DHT22;2105;52.300;9.182;2022-09-03T00:06:10;16.80;1.00
4183;DHT22;2105;52.300;9.182;2022-09-03T00:08:43;16.80;1.00
4183;DHT22;2105;52.300;9.182;2022-09-03T00:11:16;16.80;1.00
4183;DHT22;2105;52.300;9.182;2022-09-03T00:13:48;16.80;1.00
4183;DHT22;2105;52.300;9.182;2022-09-03T00:16:19;16.80;1.00
4183;DHT22;2105;52.300;9.182;2022-09-03T00:18:49;16.70;1.00
4183;DHT22;2105;52.300;9.182;2022-09-03T00:21:25;16.80;1.00
4183;DHT22;2105;52.300;9.182;2022-09-03T00:23:53;16.70;1.00
4183;DHT22;2105;52.300;9.182;2022-09-03T00:26:24;16.70;1.00
4183;DHT22;2105;52.300;9.182;2022-09-03T00:28:56;16.80;1.00
4183;DHT22;2105;52.300;9.182;2022-09-03T00:31:29;16.80;1.00
4183;DHT22;2105;52.300;9.182;2022-09-03T00:34:02;16.80;1.00
4183;DHT22;2105;52.300;9.182;2022-09-03T00:36:36;16.80;1.00
4183;DHT22;2105;52.300;9.182;2022-09-03T00:39:09;16.80;1.00
4183;DHT22;2105;52.300;9.182;2022-09-03T00:41:39;16.80;1.00
4183;DHT22;2105;52.300;9.182;2022-09-03T00:44:32;16.80;1.00
4183;DHT22;2105;52.300;9.182;2022-09-03T00:47:08;16.80;1.00
4183;DHT22;2105;52.300;9.182;2022-09-03T00:49:46;16.70;1.00
4183;DHT22;2105;52.300;9.182;2022-09-03T00:52:21;16.70;1.00
4183;DHT22;2105;52.300;9.182;2022-09-03T00:54:57;16.70;1.00
4183;DHT22;2105;52.300;9.182;2022-09-03T00:57:34;16.60;1.00
4183;DHT22;2105;52.300;9.182;2022-09-03T01:00:05;16.60;1.00
4183;DHT22;2105;52.300;9.182;2022-09-03T01:02:49;16.50;1.00
4183;DHT22;2105;52.300;9.182;2022-09-03T01:05:27;16.40;1.00
4183;DHT22;2105;52.300;9.182;2022-09-03T01:08:15;16.30;1.00
4183;DHT22;2105;52.300;9.182;2022-09-03T01:10:50;16.30;1.00
4183;DHT22;2105;52.300;9.182;2022-09-03T01:13:20;16.20;1.00
4183;DHT22;2105;52.300;9.182;2022-09-03T01:15:57;16.20;1.00
4183;DHT22;2105;52.300;9.182;2022-09-03T01:18:31;16.20;1.00
4183;DHT22;2105;52.300;9.182;2022-09-03T01:21:28;16.30;1.00
4183;DHT22;2105;52.300;9.182;2022-09-03T01:27:10;16.10;1.00
4183;DHT22;2105;52.300;9.182;2022-09-03T01:29:45;16.00;7.90
4183;DHT22;2105;52.300;9.182;2022-09-03T01:32:18;16.00;15.60
4183;DHT22;2105;52.300;9.182;2022-09-03T01:34:56;16.00;24.40
4183;DHT22;2105;52.300;9.182;2022-09-03T01:37:33;15.90;40.20
4183;DHT22;2105;52.300;9.182;2022-09-03T01:40:11;15.90;48.10
4183;DHT22;2105;52.300;9.182;2022-09-03T01:42:47;15.90;82.60
4183;DHT22;2105;52.300;9.182;2022-09-03T01:45:47;15.80;90.20
4183;DHT22;2105;52.300;9.182;2022-09-03T01:48:39;15.80;99.90
4183;DHT22;2105;52.300;9.182;2022-09-03T01:51:13;15.70;99.90
4183;DHT22;2105;52.300;9.182;2022-09-03T01:54:05;15.60;99.90
4183;DHT22;2105;52.300;9.182;2022-09-03T01:56:46;15.50;99.90
4183;DHT22;2105;52.300;9.182;2022-09-03T01:59:21;15.50;99.90
4183;DHT22;2105;52.300;9.182;2022-09-03T02:01:55;15.50;99.90
4183;DHT22;2105;52.300;9.182;2022-09-03T02:04:24;15.30;99.90
4183;DHT22;2105;52.300;9.182;2022-09-03T02:06:55;15.20;99.90
4183;DHT22;2105;52.300;9.182;2022-09-03T02:09:23;15.20;99.90
4183;DHT22;2105;52.300;9.182;2022-09-03T02:11:54;15.20;99.90
4183;DHT22;2105;52.300;9.182;2022-09-03T02:14:22;15.20;99.90
4183;DHT22;2105;52.300;9.182;2022-09-03T02:16:50;15.10;99.90
4183;DHT22;2105;52.300;9.182;2022-09-03T02:19:17;15.00;99.90
4183;DHT22;2105;52.300;9.182;2022-09-03T02:21:48;15.00;99.90
4183;DHT22;2105;52.300;9.182;2022-09-03T02:24:16;15.00;99.90
4183;DHT22;2105;52.300;9.182;2022-09-03T02:26:42;15.00;99.90
4183;DHT22;2105;52.300;9.182;2022-09-03T02:29:09;15.00;99.90
4183;DHT22;2105;52.300;9.182;2022-09-03T02:31:36;14.90;99.90
4183;DHT22;2105;52.300;9.182;2022-09-03T02:34:04;14.90;1.00
4183;DHT22;2105;52.300;9.182;2022-09-03T02:36:33;14.80;1.00
4183;DHT22;2105;52.300;9.182;2022-09-03T02:39:00;14.80;1.00
4183;DHT22;2105;52.300;9.182;2022-09-03T02:41:27;14.80;1.00
4183;DHT22;2105;52.300;9.182;2022-09-03T02:43:57;14.60;1.00
4183;DHT22;2105;52.300;9.182;2022-09-03T02:46:31;14.50;1.00
4183;DHT22;2105;52.300;9.182;2022-09-03T02:48:59;14.50;1.00
4183;DHT22;2105;52.300;9.182;2022-09-03T02:51:31;14.40;1.00
4183;DHT22;2105;52.300;9.182;2022-09-03T02:53:58;14.40;1.00
4183;DHT22;2105;52.300;9.182;2022-09-03T02:56:24;14.20;1.00
4183;DHT22;2105;52.300;9.182;2022-09-03T02:58:52;14.20;1.00
4183;DHT22;2105;52.300;9.182;2022-09-03T03:01:19;14.20;1.00
4183;DHT22;2105;52.300;9.182;2022-09-03T03:03:45;14.10;1.00
4183;DHT22;2105;52.300;9.182;2022-09-03T03:06:12;14.10;1.00
4183;DHT22;2105;52.300;9.182;2022-09-03T03:08:40;14.10;1.00
4183;DHT22;2105;52.300;9.182;2022-09-03T03:11:08;14.10;1.00
4183;DHT22;2105;52.300;9.182;2022-09-03T03:13:35;14.00;8.50
4183;DHT22;2105;52.300;9.182;2022-09-03T03:16:03;13.90;53.30
4183;DHT22;2105;52.300;9.182;2022-09-03T03:18:31;13.90;92.80
4183;DHT22;2105;52.300;9.182;2022-09-03T03:21:03;13.80;99.90
4183;DHT22;2105;52.300;9.182;2022-09-03T03:23:31;13.80;99.90
4183;DHT22;2105;52.300;9.182;2022-09-03T03:26:01;13.70;99.90
4183;DHT22;2105;52.300;9.182;2022-09-03T03:28:28;13.70;99.90
4183;DHT22;2105;52.300;9.182;2022-09-03T03:30:56;13.70;99.90
4183;DHT22;2105;52.300;9.182;2022-09-03T03:33:23;13.70;99.90
4183;DHT22;2105;52.300;9.182;2022-09-03T03:35:49;13.90;99.90
4183;DHT22;2105;52.300;9.182;2022-09-03T03:38:16;14.10;28.00
4183;DHT22;2105;52.300;9.182;2022-09-03T03:40:43;14.40;1.00
4183;DHT22;2105;52.300;9.182;2022-09-03T03:43:11;14.60;1.00
4183;DHT22;2105;52.300;9.182;2022-09-03T03:45:37;14.70;1.00
4183;DHT22;2105;52.300;9.182;2022-09-03T03:48:04;14.70;1.00
4183;DHT22;2105;52.300;9.182;2022-09-03T03:50:30;14.70;1.00
4183;DHT22;2105;52.300;9.182;2022-09-03T03:52:58;14.70;1.00
4183;DHT22;2105;52.300;9.182;2022-09-03T03:55:25;14.70;1.00
4183;DHT22;2105;52.300;9.182;2022-09-03T03:57:52;14.80;1.00
4183;DHT22;2105;52.300;9.182;2022-09-03T04:00:20;14.70;1.00
4183;DHT22;2105;52.300;9.182;2022-09-03T04:02:46;14.70;1.00
4183;DHT22;2105;52.300;9.182;2022-09-03T04:05:13;14.60;1.00
4183;DHT22;2105;52.300;9.182;2022-09-03T04:07:40;14.60;1.00
4183;DHT22;2105;52.300;9.182;2022-09-03T04:10:08;14.60;1.00
4183;DHT22;2105;52.300;9.182;2022-09-03T04:12:35;14.70;1.00
4183;DHT22;2105;52.300;9.182;2022-09-03T04:15:02;14.70;1.00
4183;DHT22;2105;52.300;9.182;2022-09-03T04:17:30;14.70;1.00
4183;DHT22;2105;52.300;9.182;2022-09-03T04:19:57;14.70;1.00
4183;DHT22;2105;52.300;9.182;2022-09-03T04:22:24;14.70;1.00
4183;DHT22;2105;52.300;9.182;2022-09-03T04:24:50;14.80;1.00
4183;DHT22;2105;52.300;9.182;2022-09-03T04:27:17;14.80;1.00
4183;DHT22;2105;52.300;9.182;2022-09-03T04:29:43;14.80;1.00
4183;DHT22;2105;52.300;9.182;2022-09-03T04:32:10;14.80;1.00
4183;DHT22;2105;52.300;9.182;2022-09-03T04:34:55;14.90;1.00
4183;DHT22;2105;52.300;9.182;2022-09-03T04:37:22;14.80;1.00
4183;DHT22;2105;52.300;9.182;2022-09-03T04:39:49;14.80;1.00
4183;DHT22;2105;52.300;9.182;2022-09-03T04:42:15;14.90;1.00
4183;DHT22;2105;52.300;9.182;2022-09-03T04:44:42;14.90;1.00
4183;DHT22;2105;52.300;9.182;2022-09-03T04:47:09;14.80;1.00
4183;DHT22;2105;52.300;9.182;2022-09-03T04:49:35;14.80;1.00
4183;DHT22;2105;52.300;9.182;2022-09-03T04:52:05;14.70;1.00
4183;DHT22;2105;52.300;9.182;2022-09-03T04:54:32;14.60;1.00
4183;DHT22;2105;52.300;9.182;2022-09-03T04:56:59;14.50;1.00
4183;DHT22;2105;52.300;9.182;2022-09-03T04:59:25;14.50;1.00
4183;DHT22;2105;52.300;9.182;2022-09-03T05:01:52;14.50;1.00
4183;DHT22;2105;52.300;9.182;2022-09-03T05:04:20;14.60;1.00
4183;DHT22;2105;52.300;9.182;2022-09-03T05:06:47;14.70;1.00
4183;DHT22;2105;52.300;9.182;2022-09-03T05:09:15;14.80;1.00
4183;DHT22;2105;52.300;9.182;2022-09-03T05:11:42;14.80;1.00
4183;DHT22;2105;52.300;9.182;2022-09-03T05:14:09;14.90;1.00
4183;DHT22;2105;52.300;9.182;2022-09-03T05:16:37;14.90;1.00
4183;DHT22;2105;52.300;9.182;2022-09-03T05:19:04;14.90;1.00
4183;DHT22;2105;52.300;9.182;2022-09-03T05:21:33;15.00;1.00
4183;DHT22;2105;52.300;9.182;2022-09-03T05:24:01;15.00;1.00
4183;DHT22;2105;52.300;9.182;2022-09-03T05:26:31;15.00;1.00
4183;DHT22;2105;52.300;9.182;2022-09-03T05:28:59;15.00;1.00
4183;DHT22;2105;52.300;9.182;2022-09-03T05:31:28;15.00;1.00
4183;DHT22;2105;52.300;9.182;2022-09-03T05:33:57;15.10;1.00
4183;DHT22;2105;52.300;9.182;2022-09-03T05:36:26;15.10;1.00
4183;DHT22;2105;52.300;9.182;2022-09-03T05:38:53;15.10;1.00
4183;DHT22;2105;52.300;9.182;2022-09-03T05:41:21;15.00;1.00
4183;DHT22;2105;52.300;9.182;2022-09-03T05:43:51;15.00;1.00
4183;DHT22;2105;52.300;9.182;2022-09-03T05:46:20;15.00;1.00
4183;DHT22;2105;52.300;9.182;2022-09-03T05:48:46;14.90;1.00
4183;DHT22;2105;52.300;9.182;2022-09-03T05:51:15;14.80;1.00
4183;DHT22;2105;52.300;9.182;2022-09-03T05:53:43;14.80;1.00
4183;DHT22;2105;52.300;9.182;2022-09-03T05:56:11;14.80;1.00
4183;DHT22;2105;52.300;9.182;2022-09-03T05:58:39;15.00;1.00
4183;DHT22;2105;52.300;9.182;2022-09-03T06:01:13;15.20;1.00
4183;DHT22;2105;52.300;9.182;2022-09-03T06:03:41;15.40;1.00
4183;DHT22;2105;52.300;9.182;2022-09-03T06:06:08;15.60;1.00
4183;DHT22;2105;52.300;9.182;2022-09-03T06:08:36;15.60;1.00
4183;DHT22;2105;52.300;9.182;2022-09-03T06:11:04;15.70;1.00
4183;DHT22;2105;52.300;9.182;2022-09-03T06:13:32;15.80;1.00
4183;DHT22;2105;52.300;9.182;2022-09-03T06:16:00;15.80;1.00
4183;DHT22;2105;52.300;9.182;2022-09-03T06:18:29;15.90;1.00
4183;DHT22;2105;52.300;9.182;2022-09-03T06:20:57;16.00;1.00
4183;DHT22;2105;52.300;9.182;2022-09-03T06:23:25;16.00;1.00
4183;DHT22;2105;52.300;9.182;2022-09-03T06:26:03;16.00;1.00
4183;DHT22;2105;52.300;9.182;2022-09-03T06:28:29;16.10;1.00
4183;DHT22;2105;52.300;9.182;2022-09-03T06:30:59;16.20;1.00
4183;DHT22;2105;52.300;9.182;2022-09-03T06:33:29;16.30;1.00
4183;DHT22;2105;52.300;9.182;2022-09-03T06:35:56;16.40;99.90
4183;DHT22;2105;52.300;9.182;2022-09-03T06:38:24;16.50;99.90
4183;DHT22;2105;52.300;9.182;2022-09-03T06:40:55;16.50;99.90
4183;DHT22;2105;52.300;9.182;2022-09-03T06:43:23;16.60;99.90
4183;DHT22;2105;52.300;9.182;2022-09-03T06:45:54;16.70;99.90
4183;DHT22;2105;52.300;9.182;2022-09-03T06:48:21;16.70;99.90
4183;DHT22;2105;52.300;9.182;2022-09-03T06:50:56;16.90;99.90
4183;DHT22;2105;52.300;9.182;2022-09-03T06:53:24;16.90;99.90
4183;DHT22;2105;52.300;9.182;2022-09-03T06:55:52;17.00;99.90
4183;DHT22;2105;52.300;9.182;2022-09-03T06:58:19;17.10;99.90
4183;DHT22;2105;52.300;9.182;2022-09-03T07:00:46;17.20;99.90
4183;DHT22;2105;52.300;9.182;2022-09-03T07:03:14;17.20;99.90
4183;DHT22;2105;52.300;9.182;2022-09-03T07:05:41;17.20;99.90
4183;DHT22;2105;52.300;9.182;2022-09-03T07:08:10;17.20;99.90
4183;DHT22;2105;52.300;9.182;2022-09-03T07:10:36;17.40;99.90
4183;DHT22;2105;52.300;9.182;2022-09-03T07:13:03;17.70;99.90
4183;DHT22;2105;52.300;9.182;2022-09-03T07:15:31;17.70;99.90
4183;DHT22;2105;52.300;9.182;2022-09-03T07:17:57;17.70;99.90
4183;DHT22;2105;52.300;9.182;2022-09-03T07:20:25;17.80;99.90
4183;DHT22;2105;52.300;9.182;2022-09-03T07:22:54;17.90;99.90
4183;DHT22;2105;52.300;9.182;2022-09-03T07:25:22;18.00;99.90
4183;DHT22;2105;52.300;9.182;2022-09-03T07:27:50;18.40;99.90
4183;DHT22;2105;52.300;9.182;2022-09-03T07:30:17;19.10;99.90
4183;DHT22;2105;52.300;9.182;2022-09-03T07:32:45;19.70;98.30
4183;DHT22;2105;52.300;9.182;2022-09-03T07:35:12;20.70;38.30
4183;DHT22;2105;52.300;9.182;2022-09-03T07:37:40;21.50;1.00
4183;DHT22;2105;52.300;9.182;2022-09-03T07:40:08;21.90;1.00
4183;DHT22;2105;52.300;9.182;2022-09-03T07:42:36;22.40;1.00
4183;DHT22;2105;52.300;9.182;2022-09-03T07:45:05;22.50;1.00
4183;DHT22;2105;52.300;9.182;2022-09-03T07:47:34;22.50;1.00
4183;DHT22;2105;52.300;9.182;2022-09-03T07:50:01;22.90;1.00
4183;DHT22;2105;52.300;9.182;2022-09-03T07:52:29;23.40;1.00
4183;DHT22;2105;52.300;9.182;2022-09-03T07:54:55;23.50;1.00
4183;DHT22;2105;52.300;9.182;2022-09-03T07:57:22;23.70;1.00
4183;DHT22;2105;52.300;9.182;2022-09-03T07:59:50;23.20;1.00
4183;DHT22;2105;52.300;9.182;2022-09-03T08:02:16;22.70;1.00
4183;DHT22;2105;52.300;9.182;2022-09-03T08:04:43;22.40;1.00
4183;DHT22;2105;52.300;9.182;2022-09-03T08:07:10;22.60;1.00
4183;DHT22;2105;52.300;9.182;2022-09-03T08:09:36;22.60;1.00
4183;DHT22;2105;52.300;9.182;2022-09-03T08:12:03;22.80;1.00
4183;DHT22;2105;52.300;9.182;2022-09-03T08:14:30;22.70;1.00
4183;DHT22;2105;52.300;9.182;2022-09-03T08:16:58;22.40;1.00
4183;DHT22;2105;52.300;9.182;2022-09-03T08:19:25;22.20;1.00
4183;DHT22;2105;52.300;9.182;2022-09-03T08:21:52;22.00;1.00
4183;DHT22;2105;52.300;9.182;2022-09-03T08:24:18;21.90;1.00
4183;DHT22;2105;52.300;9.182;2022-09-03T08:26:49;21.70;1.00
4183;DHT22;2105;52.300;9.182;2022-09-03T08:29:15;21.60;1.00
4183;DHT22;2105;52.300;9.182;2022-09-03T08:31:42;21.50;1.00
4183;DHT22;2105;52.300;9.182;2022-09-03T08:34:10;21.40;1.00
4183;DHT22;2105;52.300;9.182;2022-09-03T08:36:39;21.40;1.00
4183;DHT22;2105;52.300;9.182;2022-09-03T08:39:07;21.40;1.00
4183;DHT22;2105;52.300;9.182;2022-09-03T08:41:44;21.60;1.00
4183;DHT22;2105;52.300;9.182;2022-09-03T08:44:21;21.70;1.00
4183;DHT22;2105;52.300;9.182;2022-09-03T08:46:52;21.70;1.00
4183;DHT22;2105;52.300;9.182;2022-09-03T08:49:26;21.40;1.00
4183;DHT22;2105;52.300;9.182;2022-09-03T08:51:55;21.40;1.00
4183;DHT22;2105;52.300;9.182;2022-09-03T08:54:26;21.60;1.00
4183;DHT22;2105;52.300;9.182;2022-09-03T08:56:58;21.70;1.00
4183;DHT22;2105;52.300;9.182;2022-09-03T08:59:26;21.60;1.00
4183;DHT22;2105;52.300;9.182;2022-09-03T09:01:57;21.80;1.00
4183;DHT22;2105;52.300;9.182;2022-09-03T09:04:38;22.00;1.00
4183;DHT22;2105;52.300;9.182;2022-09-03T09:07:11;22.30;1.00
4183;DHT22;2105;52.300;9.182;2022-09-03T09:09:45;22.30;1.00
4183;DHT22;2105;52.300;9.182;2022-09-03T09:12:20;22.30;1.00
4183;DHT22;2105;52.300;9.182;2022-09-03T09:15:05;22.50;1.00
4183;DHT22;2105;52.300;9.182;2022-09-03T09:17:48;22.30;1.00
4183;DHT22;2105;52.300;9.182;2022-09-03T09:20:25;22.40;1.00
4183;DHT22;2105;52.300;9.182;2022-09-03T09:22:55;22.50;1.00
4183;DHT22;2105;52.300;9.182;2022-09-03T09:25:24;22.50;1.00
4183;DHT22;2105;52.300;9.182;2022-09-03T09:27:57;22.30;1.00
4183;DHT22;2105;52.300;9.182;2022-09-03T09:30:25;22.50;1.00
4183;DHT22;2105;52.300;9.182;2022-09-03T09:32:52;22.60;1.00
4183;DHT22;2105;52.300;9.182;2022-09-03T09:35:22;22.70;1.00
4183;DHT22;2105;52.300;9.182;2022-09-03T09:37:50;22.60;1.00
4183;DHT22;2105;52.300;9.182;2022-09-03T09:40:26;22.70;1.00
4183;DHT22;2105;52.300;9.182;2022-09-03T09:43:06;22.60;1.00
4183;DHT22;2105;52.300;9.182;2022-09-03T09:45:36;22.70;1.00
4183;DHT22;2105;52.300;9.182;2022-09-03T09:48:10;22.90;1.00
4183;DHT22;2105;52.300;9.182;2022-09-03T09:50:40;22.80;1.00
4183;DHT22;2105;52.300;9.182;2022-09-03T09:53:08;22.70;1.00
4183;DHT22;2105;52.300;9.182;2022-09-03T09:55:51;22.80;1.00
4183;DHT22;2105;52.300;9.182;2022-09-03T09:58:22;22.90;1.00
4183;DHT22;2105;52.300;9.182;2022-09-03T10:01:12;23.10;1.00
4183;DHT22;2105;52.300;9.182;2022-09-03T10:03:47;23.30;1.00
4183;DHT22;2105;52.300;9.182;2022-09-03T10:06:16;23.30;1.00
4183;DHT22;2105;52.300;9.182;2022-09-03T10:09:07;23.20;1.00
4183;DHT22;2105;52.300;9.182;2022-09-03T10:11:36;23.30;1.00
4183;DHT22;2105;52.300;9.182;2022-09-03T10:14:09;23.30;1.00
4183;DHT22;2105;52.300;9.182;2022-09-03T10:16:40;23.60;1.00
4183;DHT22;2105;52.300;9.182;2022-09-03T10:19:16;23.60;1.00
4183;DHT22;2105;52.300;9.182;2022-09-03T10:21:52;23.60;1.00
4183;DHT22;2105;52.300;9.182;2022-09-03T10:24:37;23.50;1.00
4183;DHT22;2105;52.300;9.182;2022-09-03T10:27:07;23.40;1.00
4183;DHT22;2105;52.300;9.182;2022-09-03T10:29:37;23.40;1.00
4183;DHT22;2105;52.300;9.182;2022-09-03T10:32:17;23.40;1.00
4183;DHT22;2105;52.300;9.182;2022-09-03T10:34:53;23.60;1.00
4183;DHT22;2105;52.300;9.182;2022-09-03T10:37:31;23.70;1.00
4183;DHT22;2105;52.300;9.182;2022-09-03T10:40:12;23.80;1.00
4183;DHT22;2105;52.300;9.182;2022-09-03T10:42:43;24.00;1.00
4183;DHT22;2105;52.300;9.182;2022-09-03T10:45:29;24.20;1.00
4183;DHT22;2105;52.300;9.182;2022-09-03T10:48:23;24.00;1.00
4183;DHT22;2105;52.300;9.182;2022-09-03T10:50:56;24.10;1.00
4183;DHT22;2105;52.300;9.182;2022-09-03T10:53:37;24.50;1.00
4183;DHT22;2105;52.300;9.182;2022-09-03T10:56:08;24.40;1.00
4183;DHT22;2105;52.300;9.182;2022-09-03T10:58:52;24.60;1.00
4183;DHT22;2105;52.300;9.182;2022-09-03T11:01:40;24.60;1.00
4183;DHT22;2105;52.300;9.182;2022-09-03T11:04:24;24.90;1.00
4183;DHT22;2105;52.300;9.182;2022-09-03T11:06:57;24.70;1.00
4183;DHT22;2105;52.300;9.182;2022-09-03T11:09:30;24.60;1.00
4183;DHT22;2105;52.300;9.182;2022-09-03T11:12:04;24.80;1.00
4183;DHT22;2105;52.300;9.182;2022-09-03T11:14:36;24.40;1.00
4183;DHT22;2105;52.300;9.182;2022-09-03T11:17:08;24.60;1.00
4183;DHT22;2105;52.300;9.182;2022-09-03T11:19:44;24.50;1.00
4183;DHT22;2105;52.300;9.182;2022-09-03T11:22:15;24.60;1.00
4183;DHT22;2105;52.300;9.182;2022-09-03T11:24:53;24.90;1.00
4183;DHT22;2105;52.300;9.182;2022-09-03T11:27:34;24.80;1.00
4183;DHT22;2105;52.300;9.182;2022-09-03T11:30:04;24.80;1.00
4183;DHT22;2105;52.300;9.182;2022-09-03T11:32:43;24.90;1.00
4183;DHT22;2105;52.300;9.182;2022-09-03T11:35:14;25.00;1.00
4183;DHT22;2105;52.300;9.182;2022-09-03T11:37:49;24.90;1.00
4183;DHT22;2105;52.300;9.182;2022-09-03T11:40:19;24.50;1.00
4183;DHT22;2105;52.300;9.182;2022-09-03T11:43:05;24.60;1.00
4183;DHT22;2105;52.300;9.182;2022-09-03T11:45:36;24.50;1.00
4183;DHT22;2105;52.300;9.182;2022-09-03T11:48:16;24.30;1.00
4183;DHT22;2105;52.300;9.182;2022-09-03T11:50:52;25.10;1.00
4183;DHT22;2105;52.300;9.182;2022-09-03T11:53:24;25.40;1.00
4183;DHT22;2105;52.300;9.182;2022-09-03T11:55:55;25.90;1.00
4183;DHT22;2105;52.300;9.182;2022-09-03T11:58:26;26.20;1.00
4183;DHT22;2105;52.300;9.182;2022-09-03T12:00:55;26.20;1.00
4183;DHT22;2105;52.300;9.182;2022-09-03T12:03:26;26.10;1.00
4183;DHT22;2105;52.300;9.182;2022-09-03T12:06:08;25.70;1.00
4183;DHT22;2105;52.300;9.182;2022-09-03T12:08:57;25.80;1.00
4183;DHT22;2105;52.300;9.182;2022-09-03T12:11:38;26.30;1.00
4183;DHT22;2105;52.300;9.182;2022-09-03T12:14:11;26.40;1.00
4183;DHT22;2105;52.300;9.182;2022-09-03T12:16:51;26.10;1.00
4183;DHT22;2105;52.300;9.182;2022-09-03T12:19:29;26.30;1.00
4183;DHT22;2105;52.300;9.182;2022-09-03T12:21:57;26.20;1.00
4183;DHT22;2105;52.300;9.182;2022-09-03T12:24:27;25.90;1.00
4183;DHT22;2105;52.300;9.182;2022-09-03T12:27:01;25.70;1.00
4183;DHT22;2105;52.300;9.182;2022-09-03T12:29:30;26.30;1.00
4183;DHT22;2105;52.300;9.182;2022-09-03T12:32:06;26.30;1.00
4183;DHT22;2105;52.300;9.182;2022-09-03T12:34:33;26.40;1.00
4183;DHT22;2105;52.300;9.182;2022-09-03T12:37:00;26.40;1.00
4183;DHT22;2105;52.300;9.182;2022-09-03T12:39:28;26.10;1.00
4183;DHT22;2105;52.300;9.182;2022-09-03T12:42:01;26.10;1.00
4183;DHT22;2105;52.300;9.182;2022-09-03T12:44:30;25.90;1.00
4183;DHT22;2105;52.300;9.182;2022-09-03T12:47:02;25.80;1.00
4183;DHT22;2105;52.300;9.182;2022-09-03T12:49:34;26.10;1.00
4183;DHT22;2105;52.300;9.182;2022-09-03T12:52:06;26.20;1.00
4183;DHT22;2105;52.300;9.182;2022-09-03T12:54:36;26.40;1.00
4183;DHT22;2105;52.300;9.182;2022-09-03T12:57:05;26.70;1.00
4183;DHT22;2105;52.300;9.182;2022-09-03T12:59:34;27.00;1.00
4183;DHT22;2105;52.300;9.182;2022-09-03T13:02:05;27.20;1.00
4183;DHT22;2105;52.300;9.182;2022-09-03T13:04:38;26.20;1.00
4183;DHT22;2105;52.300;9.182;2022-09-03T13:07:11;25.90;1.00
4183;DHT22;2105;52.300;9.182;2022-09-03T13:09:39;26.10;1.00
4183;DHT22;2105;52.300;9.182;2022-09-03T13:12:20;26.60;1.00
4183;DHT22;2105;52.300;9.182;2022-09-03T13:14:47;26.80;1.00
4183;DHT22;2105;52.300;9.182;2022-09-03T13:17:24;26.90;1.00
4183;DHT22;2105;52.300;9.182;2022-09-03T13:20:08;26.90;1.00
4183;DHT22;2105;52.300;9.182;2022-09-03T13:22:45;26.30;1.00
4183;DHT22;2105;52.300;9.182;2022-09-03T13:25:23;26.30;1.00
4183;DHT22;2105;52.300;9.182;2022-09-03T13:27:58;26.50;1.00
4183;DHT22;2105;52.300;9.182;2022-09-03T13:30:31;26.70;1.00
4183;DHT22;2105;52.300;9.182;2022-09-03T13:33:02;26.90;1.00
4183;DHT22;2105;52.300;9.182;2022-09-03T13:35:35;26.30;1.00
4183;DHT22;2105;52.300;9.182;2022-09-03T13:38:19;25.90;1.00
4183;DHT22;2105;52.300;9.182;2022-09-03T13:40:50;26.00;1.00
4183;DHT22;2105;52.300;9.182;2022-09-03T13:43:28;26.60;1.00
4183;DHT22;2105;52.300;9.182;2022-09-03T13:45:59;26.40;1.00
4183;DHT22;2105;52.300;9.182;2022-09-03T13:48:30;26.10;1.00
4183;DHT22;2105;52.300;9.182;2022-09-03T13:51:21;25.80;1.00
4183;DHT22;2105;52.300;9.182;2022-09-03T13:53:58;25.70;1.00
4183;DHT22;2105;52.300;9.182;2022-09-03T13:56:35;25.50;1.00
4183;DHT22;2105;52.300;9.182;2022-09-03T13:59:15;25.30;1.00
4183;DHT22;2105;52.300;9.182;2022-09-03T14:01:57;25.20;1.00
4183;DHT22;2105;52.300;9.182;2022-09-03T14:04:28;25.20;1.00
4183;DHT22;2105;52.300;9.182;2022-09-03T14:07:03;25.00;1.00
4183;DHT22;2105;52.300;9.182;2022-09-03T14:09:36;24.80;1.00
4183;DHT22;2105;52.300;9.182;2022-09-03T14:12:12;24.70;1.00
4183;DHT22;2105;52.300;9.182;2022-09-03T14:14:49;24.70;1.00
4183;DHT22;2105;52.300;9.182;2022-09-03T14:17:25;24.60;1.00
4183;DHT22;2105;52.300;9.182;2022-09-03T14:20:00;24.60;1.00
4183;DHT22;2105;52.300;9.182;2022-09-03T14:22:33;24.80;1.00
4183;DHT22;2105;52.300;9.182;2022-09-03T14:25:11;24.80;1.00
4183;DHT22;2105;52.300;9.182;2022-09-03T14:27:39;24.90;1.00
4183;DHT22;2105;52.300;9.182;2022-09-03T14:30:19;24.90;1.00
4183;DHT22;2105;52.300;9.182;2022-09-03T14:32:55;24.80;1.00
4183;DHT22;2105;52.300;9.182;2022-09-03T14:35:32;24.70;1.00
4183;DHT22;2105;52.300;9.182;2022-09-03T14:41:04;24.60;1.00
4183;DHT22;2105;52.300;9.182;2022-09-03T14:46:55;24.40;1.00
4183;DHT22;2105;52.300;9.182;2022-09-03T14:49:44;24.30;1.00
4183;DHT22;2105;52.300;9.182;2022-09-03T14:52:23;24.50;1.00
4183;DHT22;2105;52.300;9.182;2022-09-03T14:55:14;24.60;1.00
4183;DHT22;2105;52.300;9.182;2022-09-03T14:57:56;24.50;1.00
4183;DHT22;2105;52.300;9.182;2022-09-03T15:00:32;24.50;1.00
4183;DHT22;2105;52.300;9.182;2022-09-03T15:06:01;24.60;1.00
4183;DHT22;2105;52.300;9.182;2022-09-03T15:08:47;24.60;1.00
4183;DHT22;2105;52.300;9.182;2022-09-03T15:11:18;24.50;1.00
4183;DHT22;2105;52.300;9.182;2022-09-03T15:13:50;24.30;1.00
4183;DHT22;2105;52.300;9.182;2022-09-03T15:16:28;24.30;1.00
4183;DHT22;2105;52.300;9.182;2022-09-03T15:19:12;24.60;1.00
4183;DHT22;2105;52.300;9.182;2022-09-03T15:21:57;24.70;1.00
4183;DHT22;2105;52.300;9.182;2022-09-03T15:24:40;24.70;1.00
4183;DHT22;2105;52.300;9.182;2022-09-03T15:27:21;24.70;1.00
4183;DHT22;2105;52.300;9.182;2022-09-03T15:29:59;24.60;1.00
4183;DHT22;2105;52.300;9.182;2022-09-03T15:32:41;24.70;1.00
4183;DHT22;2105;52.300;9.182;2022-09-03T15:35:18;24.70;1.00
4183;DHT22;2105;52.300;9.182;2022-09-03T15:37:56;24.60;1.00
4183;DHT22;2105;52.300;9.182;2022-09-03T15:40:27;24.50;1.00
4183;DHT22;2105;52.300;9.182;2022-09-03T15:42:59;24.50;1.00
4183;DHT22;2105;52.300;9.182;2022-09-03T15:45:34;24.60;1.00
4183;DHT22;2105;52.300;9.182;2022-09-03T15:48:09;24.60;1.00
4183;DHT22;2105;52.300;9.182;2022-09-03T15:50:49;24.70;1.00
4183;DHT22;2105;52.300;9.182;2022-09-03T15:53:25;24.70;1.00
4183;DHT22;2105;52.300;9.182;2022-09-03T15:56:05;24.60;1.00
4183;DHT22;2105;52.300;9.182;2022-09-03T15:58:36;24.60;1.00
4183;DHT22;2105;52.300;9.182;2022-09-03T16:01:10;24.50;1.00
4183;DHT22;2105;52.300;9.182;2022-09-03T16:03:55;24.40;1.00
4183;DHT22;2105;52.300;9.182;2022-09-03T16:06:32;24.30;1.00
4183;DHT22;2105;52.300;9.182;2022-09-03T16:09:09;24.20;1.00
4183;DHT22;2105;52.300;9.182;2022-09-03T16:11:51;24.20;1.00
4183;DHT22;2105;52.300;9.182;2022-09-03T16:14:25;24.20;1.00
4183;DHT22;2105;52.300;9.182;2022-09-03T16:16:59;24.10;1.00
4183;DHT22;2105;52.300;9.182;2022-09-03T16:19:33;24.00;1.00
4183;DHT22;2105;52.300;9.182;2022-09-03T16:22:06;23.90;1.00
4183;DHT22;2105;52.300;9.182;2022-09-03T16:24:42;23.80;1.00
4183;DHT22;2105;52.300;9.182;2022-09-03T16:27:14;23.70;1.00
4183;DHT22;2105;52.300;9.182;2022-09-03T16:29:55;23.60;1.00
4183;DHT22;2105;52.300;9.182;2022-09-03T16:32:30;23.70;1.00
4183;DHT22;2105;52.300;9.182;2022-09-03T16:35:10;23.60;1.00
4183;DHT22;2105;52.300;9.182;2022-09-03T16:37:49;23.60;1.00
4183;DHT22;2105;52.300;9.182;2022-09-03T16:40:27;23.50;1.00
4183;DHT22;2105;52.300;9.182;2022-09-03T16:43:05;23.60;1.00
4183;DHT22;2105;52.300;9.182;2022-09-03T16:45:40;23.60;1.00
4183;DHT22;2105;52.300;9.182;2022-09-03T16:48:23;23.40;1.00
4183;DHT22;2105;52.300;9.182;2022-09-03T16:51:05;23.40;1.00
4183;DHT22;2105;52.300;9.182;2022-09-03T16:53:46;23.30;1.00
4183;DHT22;2105;52.300;9.182;2022-09-03T16:56:38;23.30;1.00
4183;DHT22;2105;52.300;9.182;2022-09-03T17:02:05;23.20;1.00
4183;DHT22;2105;52.300;9.182;2022-09-03T17:07:58;23.10;1.00